Time;durP1;ratioP1;P1;durP2;ratioP2;P2;SDS_P1;SDS_P2;PMS_P1;PMS_P2;Temp;Humidity;BMP_temperature;BMP_pressure;BME280_temperature;BME280_humidity;BME280_pressure;Samples;Min_cycle;Max_cycle;Signal;HPM_P1;HPM_P2
2022/02/12 00:00:22;;;;;;;15.95;7.00;;;2.90;99.90;;;;;;5098206;28;20274;-87
2022/02/12 00:02:52;;;;;;;10.90;5.88;;;2.90;99.90;;;;;;5096517;28;20224;-87
2022/02/12 00:05:19;;;;;;;12.80;8.65;;;2.90;99.90;;;;;;5096522;28;20669;-87
2022/02/12 00:07:46;;;;;;;11.50;7.80;;;3.10;99.90;;;;;;5109021;28;20228;-87
2022/02/12 00:10:18;;;;;;;12.88;7.38;;;3.10;99.90;;;;;;5111282;28;20668;-87
2022/02/12 00:12:46;;;;;;;12.15;7.25;;;3.10;99.90;;;;;;5107687;28;20244;-88
2022/02/12 00:15:13;;;;;;;12.50;7.38;;;3.10;99.90;;;;;;5101523;28;20673;-87
2022/02/12 00:17:40;;;;;;;13.15;7.13;;;3.30;99.90;;;;;;5099384;28;20284;-87
2022/02/12 00:20:09;;;;;;;10.93;7.13;;;3.10;99.90;;;;;;5099795;28;20648;-87
2022/02/12 00:22:36;;;;;;;15.48;7.82;;;3.10;99.90;;;;;;5105787;28;20228;-87
2022/02/12 00:25:04;;;;;;;11.45;5.90;;;3.20;99.90;;;;;;5117941;28;20236;-87
2022/02/12 00:27:31;;;;;;;10.05;6.47;;;3.20;99.90;;;;;;5120167;28;20239;-88
2022/02/12 00:29:58;;;;;;;12.82;6.10;;;3.10;99.90;;;;;;5120680;28;20231;-88
2022/02/12 00:32:25;;;;;;;9.73;6.40;;;3.00;99.90;;;;;;5117184;28;20235;-87
2022/02/12 00:34:52;;;;;;;11.50;7.47;;;3.00;99.90;;;;;;5118439;28;20196;-87
2022/02/12 00:37:20;;;;;;;14.00;7.50;;;2.80;99.90;;;;;;5113563;28;20220;-88
2022/02/12 00:39:47;;;;;;;15.80;8.35;;;3.00;99.90;;;;;;5110182;28;20295;-87
2022/02/12 00:42:14;;;;;;;12.13;6.82;;;2.90;99.90;;;;;;5104179;28;20231;-87
2022/02/12 00:44:41;;;;;;;14.57;7.32;;;2.90;99.90;;;;;;5104147;28;20209;-86
2022/02/12 00:47:08;;;;;;;13.07;8.25;;;3.00;99.90;;;;;;5100393;28;20205;-87
2022/02/12 00:49:36;;;;;;;13.50;7.60;;;2.90;99.90;;;;;;5100553;28;20582;-87
2022/02/12 00:52:03;;;;;;;14.45;7.75;;;2.70;99.90;;;;;;5101002;28;20247;-87
2022/02/12 00:54:32;;;;;;;17.70;9.10;;;2.70;99.90;;;;;;5099100;28;20623;-87
2022/02/12 00:56:59;;;;;;;19.92;9.48;;;2.80;99.90;;;;;;5099284;28;20297;-87
2022/02/12 00:59:26;;;;;;;16.88;10.77;;;3.00;99.90;;;;;;5100608;28;20207;-87
2022/02/12 01:01:53;;;;;;;19.08;11.40;;;2.90;99.90;;;;;;5105491;28;20597;-87
2022/02/12 01:04:21;;;;;;;19.23;11.98;;;3.00;99.90;;;;;;5098826;28;20315;-87
2022/02/12 01:06:48;;;;;;;24.95;13.45;;;3.00;99.90;;;;;;5099310;28;20296;-87
2022/02/12 01:09:15;;;;;;;20.33;12.90;;;2.80;99.90;;;;;;5102775;28;20264;-87
2022/02/12 01:11:43;;;;;;;23.40;14.70;;;2.90;99.90;;;;;;5109383;28;20695;-87
2022/02/12 01:14:12;;;;;;;24.33;14.15;;;2.90;99.90;;;;;;5099661;28;20736;-88
2022/02/12 01:16:39;;;;;;;20.05;13.73;;;3.10;99.90;;;;;;5104821;28;20268;-88
2022/02/12 01:19:06;;;;;;;26.45;14.40;;;2.90;99.90;;;;;;5113224;28;20631;-88
2022/02/12 01:21:33;;;;;;;23.75;14.88;;;3.10;99.90;;;;;;5099958;28;20247;-88
2022/02/12 01:24:02;;;;;;;28.52;15.48;;;2.80;99.90;;;;;;5098504;28;20244;-87
2022/02/12 01:26:30;;;;;;;30.83;15.30;;;2.70;99.90;;;;;;5099602;28;20204;-88
2022/02/12 01:28:58;;;;;;;27.17;14.50;;;3.00;99.90;;;;;;5100143;28;20203;-88
2022/02/12 01:31:25;;;;;;;25.33;14.35;;;2.70;99.90;;;;;;5116286;28;20212;-88
2022/02/12 01:34:01;;;;;;;25.48;15.80;;;2.60;99.90;;;;;;5116712;28;20237;-87
2022/02/12 01:36:32;;;;;;;22.88;15.00;;;2.60;99.90;;;;;;5104183;28;20193;-87
2022/02/12 01:38:59;;;;;;;28.58;15.32;;;2.60;99.90;;;;;;5100011;28;20197;-87
2022/02/12 01:41:35;;;;;;;24.20;13.38;;;2.70;99.90;;;;;;5101549;28;20270;-89
2022/02/12 01:44:11;;;;;;;24.92;14.20;;;2.90;99.90;;;;;;5102253;28;20228;-88
2022/02/12 01:46:39;;;;;;;21.33;13.43;;;2.60;99.90;;;;;;5113729;28;20235;-87
2022/02/12 01:49:06;;;;;;;22.95;15.18;;;2.80;99.90;;;;;;5104164;28;20261;-88
2022/02/12 01:51:39;;;;;;;22.23;14.70;;;2.80;99.90;;;;;;5104014;28;20268;-88
2022/02/12 01:54:15;;;;;;;24.02;13.43;;;2.70;99.90;;;;;;5101222;28;20256;-89
2022/02/12 01:56:44;;;;;;;24.98;13.23;;;2.50;99.90;;;;;;5107919;28;20237;-87
2022/02/12 01:59:17;;;;;;;22.55;14.60;;;2.60;99.90;;;;;;5117223;28;20185;-87
2022/02/12 02:01:44;;;;;;;24.20;15.45;;;2.40;99.90;;;;;;5118192;28;20211;-87
2022/02/12 02:14:44;;;;;;;20.48;13.27;;;2.20;99.90;;;;;;5100541;28;20680;-87
2022/02/12 02:17:11;;;;;;;23.08;14.77;;;2.30;99.90;;;;;;5099876;28;20227;-87
2022/02/12 02:19:38;;;;;;;23.10;14.35;;;2.30;99.90;;;;;;5098594;28;20299;-87
2022/02/12 02:22:06;;;;;;;20.48;14.10;;;2.00;99.90;;;;;;5102276;28;20247;-87
2022/02/12 02:24:34;;;;;;;20.10;13.52;;;2.10;99.90;;;;;;5103452;28;20316;-87
2022/02/12 02:27:05;;;;;;;20.77;13.82;;;2.30;99.90;;;;;;5108861;28;20235;-87
2022/02/12 02:29:33;;;;;;;19.50;12.52;;;2.40;99.90;;;;;;5111346;28;20228;-88
2022/02/12 02:31:59;;;;;;;23.45;15.23;;;2.30;99.90;;;;;;5108689;28;20359;-87
2022/02/12 02:34:26;;;;;;;21.02;14.07;;;2.10;99.90;;;;;;5104498;28;20231;-88
2022/02/12 02:36:53;;;;;;;22.45;13.95;;;2.30;99.90;;;;;;5100020;28;20764;-88
2022/02/12 02:39:20;;;;;;;21.25;13.70;;;2.20;99.90;;;;;;5098091;28;20233;-87
2022/02/12 02:41:48;;;;;;;20.83;14.10;;;2.40;99.90;;;;;;5098109;28;20315;-88
2022/02/12 02:44:16;;;;;;;19.42;12.57;;;2.30;99.90;;;;;;5096819;28;20221;-88
2022/02/12 02:46:42;;;;;;;17.85;11.38;;;2.20;99.90;;;;;;5097649;28;20245;-87
2022/02/12 02:49:09;;;;;;;21.83;12.60;;;2.40;99.90;;;;;;5096941;28;20235;-88
2022/02/12 02:57:06;;;;;;;20.35;12.98;;;2.10;99.90;;;;;;5113471;28;20200;-87
2022/02/12 02:59:32;;;;;;;20.15;11.85;;;2.00;99.90;;;;;;5097548;28;20211;-87
2022/02/12 03:01:59;;;;;;;19.42;11.32;;;2.10;99.90;;;;;;5096712;28;20707;-88
2022/02/12 03:04:26;;;;;;;18.52;12.15;;;2.30;99.90;;;;;;5096140;28;20315;-87
2022/02/12 03:06:53;;;;;;;16.83;11.75;;;2.20;99.90;;;;;;5098157;28;20208;-87
2022/02/12 03:09:21;;;;;;;17.48;11.52;;;2.00;99.90;;;;;;5097101;28;20212;-87
2022/02/12 03:11:49;;;;;;;22.48;11.55;;;2.20;99.90;;;;;;5097063;28;20220;-87
2022/02/12 03:14:17;;;;;;;17.15;10.40;;;2.00;99.90;;;;;;5096111;28;20233;-87
2022/02/12 03:16:44;;;;;;;16.75;11.07;;;2.20;99.90;;;;;;5108699;28;20239;-87
2022/02/12 03:19:11;;;;;;;17.63;11.60;;;2.10;99.90;;;;;;5116827;28;20231;-88
2022/02/12 03:21:38;;;;;;;17.27;12.13;;;2.10;99.90;;;;;;5102555;28;20258;-88
2022/02/12 03:24:05;;;;;;;17.50;11.07;;;2.10;99.90;;;;;;5116150;28;20267;-88
2022/02/12 03:26:32;;;;;;;17.75;11.52;;;2.20;99.90;;;;;;5106075;28;20241;-88
2022/02/12 03:28:59;;;;;;;15.88;10.65;;;2.00;99.90;;;;;;5098084;28;20215;-88
2022/02/12 03:31:27;;;;;;;19.15;12.10;;;2.10;99.90;;;;;;5097802;28;20205;-88
2022/02/12 03:33:54;;;;;;;17.67;11.60;;;2.10;99.90;;;;;;5098300;28;20223;-88
2022/02/12 03:36:21;;;;;;;17.25;12.50;;;1.70;99.90;;;;;;5096814;28;20287;-88
2022/02/12 03:38:49;;;;;;;18.00;11.30;;;1.90;99.90;;;;;;5097603;28;20196;-87
2022/02/12 03:41:16;;;;;;;19.33;12.30;;;1.80;99.90;;;;;;5096208;28;20319;-88
2022/02/12 03:43:43;;;;;;;17.58;10.77;;;1.80;99.90;;;;;;5096223;28;20315;-88
2022/02/12 03:46:10;;;;;;;15.82;11.43;;;1.80;99.90;;;;;;5095382;28;20254;-87
2022/02/12 03:48:38;;;;;;;14.65;10.10;;;1.80;99.90;;;;;;5103057;28;20208;-87
2022/02/12 03:51:05;;;;;;;16.02;10.30;;;2.00;99.90;;;;;;5097371;28;20261;-87
2022/02/12 03:53:32;;;;;;;15.63;10.90;;;2.10;99.90;;;;;;5097977;28;20318;-87
2022/02/12 03:56:00;;;;;;;18.38;11.18;;;1.80;99.90;;;;;;5095812;28;20299;-87
2022/02/12 03:58:28;;;;;;;17.15;10.18;;;1.90;99.90;;;;;;5095833;28;20189;-87
2022/02/12 04:00:54;;;;;;;16.42;10.85;;;1.90;99.90;;;;;;5095765;28;20239;-87
2022/02/12 04:03:21;;;;;;;17.05;10.32;;;1.90;99.90;;;;;;5096000;28;20246;-87
2022/02/12 04:05:50;;;;;;;15.32;11.40;;;1.70;99.90;;;;;;5095281;28;20372;-87
2022/02/12 04:08:18;;;;;;;17.23;11.90;;;1.70;99.90;;;;;;5101961;28;20275;-87
2022/02/12 04:10:46;;;;;;;17.75;11.05;;;1.60;99.90;;;;;;5115987;28;20205;-87
2022/02/12 04:13:13;;;;;;;16.38;10.45;;;1.60;99.90;;;;;;5112215;28;20268;-87
2022/02/12 04:15:40;;;;;;;17.00;10.02;;;1.50;99.90;;;;;;5101320;28;20243;-87
2022/02/12 04:18:10;;;;;;;20.05;11.82;;;1.60;99.90;;;;;;5096592;28;20203;-87
2022/02/12 04:20:38;;;;;;;18.27;11.60;;;1.60;99.90;;;;;;5095285;28;20201;-87
2022/02/12 04:23:07;;;;;;;17.73;10.30;;;1.50;99.90;;;;;;5095752;28;20636;-87
2022/02/12 04:25:34;;;;;;;15.00;10.50;;;1.70;99.90;;;;;;5095831;28;20273;-87
2022/02/12 04:28:04;;;;;;;16.73;11.75;;;1.60;99.90;;;;;;5096579;28;20665;-87
2022/02/12 04:30:31;;;;;;;16.48;10.60;;;1.50;99.90;;;;;;5100424;28;20195;-87
2022/02/12 04:32:58;;;;;;;14.65;9.73;;;1.40;99.90;;;;;;5109646;28;20231;-87
2022/02/12 04:35:24;;;;;;;20.95;10.60;;;1.60;99.90;;;;;;5110388;28;20279;-87
2022/02/12 04:37:51;;;;;;;15.98;10.88;;;1.70;99.90;;;;;;5113931;28;20193;-87
2022/02/12 04:40:19;;;;;;;17.10;10.77;;;1.20;99.90;;;;;;5108375;28;20204;-86
2022/02/12 04:42:46;;;;;;;16.27;10.68;;;1.30;99.90;;;;;;5102297;28;20292;-87
2022/02/12 04:45:13;;;;;;;19.55;11.00;;;1.40;99.90;;;;;;5109296;28;20209;-87
2022/02/12 04:47:41;;;;;;;17.80;11.35;;;1.40;99.90;;;;;;5095781;28;20236;-87
2022/02/12 04:50:09;;;;;;;18.10;11.00;;;1.40;99.90;;;;;;5094457;28;20646;-87
2022/02/12 04:52:37;;;;;;;16.92;10.07;;;1.40;99.90;;;;;;5107775;28;20196;-87
2022/02/12 04:55:04;;;;;;;19.08;10.25;;;1.50;99.90;;;;;;5111377;28;20259;-86
2022/02/12 04:57:33;;;;;;;16.15;10.23;;;1.30;99.90;;;;;;5112004;28;20273;-87
2022/02/12 05:00:00;;;;;;;19.00;11.10;;;1.40;99.90;;;;;;5114492;28;20198;-87
2022/02/12 05:02:27;;;;;;;16.67;10.55;;;1.40;99.90;;;;;;5105750;22;20228;-90
2022/02/12 05:04:54;;;;;;;17.15;10.80;;;1.50;99.90;;;;;;5089031;28;20274;-89
2022/02/12 05:07:21;;;;;;;17.30;10.73;;;1.50;99.90;;;;;;5097990;28;20202;-87
2022/02/12 05:09:47;;;;;;;24.30;13.88;;;1.30;99.90;;;;;;5101136;28;20219;-88
2022/02/12 05:12:14;;;;;;;27.10;15.70;;;1.50;99.90;;;;;;5101575;28;20224;-90
2022/02/12 05:14:43;;;;;;;26.20;15.40;;;1.50;99.90;;;;;;5108830;28;20580;-88
2022/02/12 05:17:09;;;;;;;26.77;14.15;;;1.00;99.90;;;;;;5107576;28;20205;-88
2022/02/12 05:19:36;;;;;;;28.40;15.57;;;1.30;99.90;;;;;;5115800;28;20216;-89
2022/02/12 05:22:04;;;;;;;24.88;14.10;;;1.60;99.90;;;;;;5109570;28;20282;-88
2022/02/12 05:24:31;;;;;;;32.47;15.63;;;1.60;99.90;;;;;;5112376;28;20262;-88
2022/02/12 05:26:58;;;;;;;29.70;16.40;;;1.00;99.90;;;;;;5113148;28;20205;-88
2022/02/12 05:29:25;;;;;;;30.67;16.63;;;1.50;99.90;;;;;;5108228;28;20527;-88
2022/02/12 05:31:53;;;;;;;35.80;16.00;;;1.50;99.90;;;;;;5111268;28;20247;-89
2022/02/12 05:34:20;;;;;;;27.80;16.48;;;1.10;99.90;;;;;;5120927;28;20200;-88
2022/02/12 05:36:48;;;;;;;35.65;18.80;;;1.10;99.90;;;;;;5115664;28;20286;-89
2022/02/12 05:39:15;;;;;;;33.58;16.30;;;1.30;99.90;;;;;;5111650;28;20250;-90
2022/02/12 05:41:42;;;;;;;25.42;15.75;;;1.60;99.90;;;;;;5110553;28;20299;-88
2022/02/12 05:44:09;;;;;;;27.42;16.40;;;1.60;99.90;;;;;;5113916;28;20218;-88
2022/02/12 05:46:36;;;;;;;28.55;15.32;;;1.60;99.90;;;;;;5115577;28;20215;-88
2022/02/12 05:49:07;;;;;;;25.17;15.65;;;1.40;99.90;;;;;;5120072;28;20215;-90
2022/02/12 05:51:34;;;;;;;25.92;14.85;;;1.30;99.90;;;;;;5112694;28;20657;-90
2022/02/12 05:54:03;;;;;;;25.48;16.45;;;1.40;99.90;;;;;;5116900;28;20189;-89
2022/02/12 05:56:30;;;;;;;28.95;16.40;;;1.40;99.90;;;;;;5119231;28;20209;-89
2022/02/12 05:58:57;;;;;;;29.45;15.93;;;1.50;99.90;;;;;;5118576;28;20185;-87
2022/02/12 06:01:25;;;;;;;25.42;13.85;;;1.20;99.90;;;;;;5116107;28;20572;-89
2022/02/12 06:03:52;;;;;;;23.50;13.93;;;1.40;99.90;;;;;;5115490;28;20213;-90
2022/02/12 06:06:20;;;;;;;26.70;15.23;;;1.10;99.90;;;;;;5116948;28;20194;-90
2022/02/12 06:08:47;;;;;;;24.13;14.43;;;1.40;99.90;;;;;;5114810;28;20242;-89
2022/02/12 06:11:14;;;;;;;27.02;14.30;;;1.60;99.90;;;;;;5111699;28;20221;-90
2022/02/12 06:13:41;;;;;;;36.42;16.75;;;1.50;99.90;;;;;;5114766;28;20227;-89
2022/02/12 06:16:08;;;;;;;23.05;15.25;;;1.20;99.90;;;;;;5114119;28;20204;-89
2022/02/12 06:18:35;;;;;;;30.20;16.23;;;1.00;99.90;;;;;;5111354;28;20227;-89
2022/02/12 06:21:06;;;;;;;26.98;15.43;;;0.90;99.90;;;;;;5108991;28;20297;-89
2022/02/12 06:23:35;;;;;;;31.60;15.50;;;1.40;99.90;;;;;;5109425;28;20211;-89
2022/02/12 06:26:02;;;;;;;28.27;16.02;;;0.80;99.90;;;;;;5109217;28;20219;-89
2022/02/12 06:28:29;;;;;;;27.55;14.70;;;0.90;99.90;;;;;;5108945;28;20224;-89
2022/02/12 06:30:56;;;;;;;34.20;14.40;;;1.20;99.90;;;;;;5111904;28;20311;-89
2022/02/12 06:33:23;;;;;;;29.35;14.32;;;1.20;99.90;;;;;;5119449;28;20192;-90
2022/02/12 06:35:50;;;;;;;27.50;15.45;;;1.20;99.90;;;;;;5114975;28;20235;-90
2022/02/12 06:38:17;;;;;;;25.90;14.60;;;1.20;99.90;;;;;;5110150;28;20214;-89
2022/02/12 06:40:45;;;;;;;26.98;13.32;;;1.40;99.90;;;;;;5106946;28;20208;-90
2022/02/12 06:43:12;;;;;;;24.58;14.00;;;1.30;99.90;;;;;;5108823;28;20299;-89
2022/02/12 06:45:39;;;;;;;28.77;14.05;;;1.50;99.90;;;;;;5107777;28;20264;-89
2022/02/12 06:48:06;;;;;;;24.98;15.32;;;1.60;99.90;;;;;;5109958;28;20656;-89
2022/02/12 06:50:33;;;;;;;27.50;15.15;;;1.10;99.90;;;;;;5113035;28;20573;-89
2022/02/12 06:53:00;;;;;;;25.45;15.30;;;1.10;99.90;;;;;;5118348;28;20206;-88
2022/02/12 06:55:29;;;;;;;23.05;13.60;;;1.50;99.90;;;;;;5116905;28;20213;-89
2022/02/12 06:57:58;;;;;;;27.23;16.83;;;1.40;99.90;;;;;;5117114;28;20218;-87
2022/02/12 07:00:24;;;;;;;25.00;13.50;;;1.60;99.90;;;;;;5119555;28;20211;-89
2022/02/12 07:02:51;;;;;;;23.85;15.30;;;1.80;99.90;;;;;;5108822;28;20228;-88
2022/02/12 07:05:19;;;;;;;35.53;15.15;;;1.80;99.90;;;;;;5107671;28;20314;-88
2022/02/12 07:07:47;;;;;;;23.30;13.65;;;1.70;99.90;;;;;;5107578;28;20220;-90
2022/02/12 07:10:16;;;;;;;22.15;14.45;;;1.30;99.90;;;;;;5106359;28;20209;-89
2022/02/12 07:12:43;;;;;;;20.50;12.95;;;1.70;99.90;;;;;;5111102;28;20247;-88
2022/02/12 07:15:12;;;;;;;23.95;13.90;;;1.90;99.90;;;;;;5113953;28;20191;-87
2022/02/12 07:17:40;;;;;;;21.55;12.50;;;1.90;99.90;;;;;;5119288;28;20227;-87
2022/02/12 07:20:09;;;;;;;21.75;12.52;;;1.70;99.90;;;;;;5118932;28;20181;-89
2022/02/12 07:22:35;;;;;;;21.35;12.48;;;1.60;99.90;;;;;;5105195;28;20227;-88
2022/02/12 07:25:03;;;;;;;20.60;12.65;;;1.90;99.90;;;;;;5106111;28;20248;-89
2022/02/12 07:27:30;;;;;;;23.67;11.65;;;1.90;99.90;;;;;;5108859;28;20216;-90
2022/02/12 07:29:57;;;;;;;24.20;12.32;;;1.80;99.90;;;;;;5110283;28;20216;-88
2022/02/12 07:32:26;;;;;;;24.73;13.55;;;2.00;99.90;;;;;;5115154;28;20213;-89
2022/02/12 07:34:53;;;;;;;24.10;12.55;;;2.00;99.90;;;;;;5112152;28;20197;-90
2022/02/12 07:37:19;;;;;;;23.98;13.70;;;2.00;99.90;;;;;;5111444;28;20232;-90
2022/02/12 07:39:46;;;;;;;27.73;14.95;;;1.90;99.90;;;;;;5111682;28;20209;-89
2022/02/12 07:42:13;;;;;;;22.17;13.25;;;1.90;99.90;;;;;;5111214;28;20224;-89
2022/02/12 07:44:40;;;;;;;25.38;13.95;;;1.60;99.90;;;;;;5110523;28;20196;-87
2022/02/12 07:47:07;;;;;;;25.73;14.18;;;1.40;99.90;;;;;;5108405;28;20239;-89
2022/02/12 07:49:38;;;;;;;26.63;13.73;;;1.80;99.90;;;;;;5108592;28;20212;-88
2022/02/12 07:52:05;;;;;;;23.50;14.52;;;1.90;99.90;;;;;;5109704;28;20273;-88
2022/02/12 07:54:32;;;;;;;30.42;14.20;;;1.90;99.90;;;;;;5108988;28;20209;-88
2022/02/12 07:56:59;;;;;;;27.50;14.60;;;1.70;99.90;;;;;;5110236;28;20723;-87
2022/02/12 07:59:27;;;;;;;28.30;15.18;;;2.00;99.90;;;;;;5111075;28;20204;-88
2022/02/12 08:01:54;;;;;;;23.90;14.32;;;1.90;99.90;;;;;;5113226;28;20224;-88
2022/02/12 08:04:20;;;;;;;27.88;15.32;;;1.80;99.90;;;;;;5109553;28;20781;-89
2022/02/12 08:09:33;;;;;;;27.33;15.73;;;1.20;99.90;;;;;;5109597;28;20390;-87
2022/02/12 08:12:13;;;;;;;31.45;15.65;;;1.80;99.90;;;;;;5108630;28;20224;-88
2022/02/12 08:14:41;;;;;;;29.13;16.23;;;1.80;99.90;;;;;;5107054;28;20235;-87
2022/02/12 08:17:08;;;;;;;28.17;14.13;;;1.90;99.90;;;;;;5106720;28;20266;-88
2022/02/12 08:19:35;;;;;;;23.50;13.73;;;2.00;99.90;;;;;;5106171;28;20660;-89
2022/02/12 08:22:04;;;;;;;31.42;15.07;;;2.00;99.90;;;;;;5107250;28;20300;-89
2022/02/12 08:24:30;;;;;;;25.30;15.18;;;1.80;99.90;;;;;;5111085;28;20228;-89
2022/02/12 08:26:57;;;;;;;27.88;15.25;;;1.50;99.90;;;;;;5110240;28;20239;-87
2022/02/12 08:29:28;;;;;;;29.40;16.38;;;2.00;99.90;;;;;;5116935;28;20212;-88
2022/02/12 08:31:55;;;;;;;32.00;14.52;;;2.00;99.90;;;;;;5113421;28;20283;-86
2022/02/12 08:34:23;;;;;;;25.13;14.52;;;1.90;99.90;;;;;;5114102;28;20205;-90
2022/02/12 08:36:50;;;;;;;23.63;14.93;;;1.60;99.90;;;;;;5112578;28;20217;-88
2022/02/12 08:39:18;;;;;;;27.73;15.88;;;1.70;99.90;;;;;;5112070;28;20233;-88
2022/02/12 08:41:46;;;;;;;28.02;15.70;;;1.80;99.90;;;;;;5110669;28;20230;-89
2022/02/12 08:44:13;;;;;;;25.05;14.73;;;1.90;99.90;;;;;;5108685;28;20252;-88
2022/02/12 08:46:40;;;;;;;24.70;15.63;;;1.90;99.90;;;;;;5109188;28;20232;-89
2022/02/12 08:49:07;;;;;;;28.17;14.13;;;1.90;99.90;;;;;;5111336;28;20283;-87
2022/02/12 08:51:37;;;;;;;27.80;16.63;;;2.10;99.90;;;;;;5115275;28;20212;-87
2022/02/12 08:54:05;;;;;;;25.65;14.75;;;2.10;99.90;;;;;;5119627;28;20211;-87
2022/02/12 08:56:33;;;;;;;22.98;14.98;;;2.00;99.90;;;;;;5116739;28;20224;-87
2022/02/12 08:59:00;;;;;;;23.80;15.38;;;2.30;99.90;;;;;;5114414;28;20208;-87
2022/02/12 09:01:27;;;;;;;28.23;14.77;;;2.10;99.90;;;;;;5113631;28;20298;-89
2022/02/12 09:03:54;;;;;;;26.40;15.15;;;2.00;99.90;;;;;;5115856;28;20256;-88
2022/02/12 09:06:22;;;;;;;23.42;15.90;;;2.50;99.90;;;;;;5115702;28;20211;-87
2022/02/12 09:08:51;;;;;;;25.05;15.93;;;2.50;99.90;;;;;;5115648;28;20230;-89
2022/02/12 09:11:18;;;;;;;23.38;14.60;;;2.50;99.90;;;;;;5112743;28;20240;-89
2022/02/12 09:13:46;;;;;;;28.27;15.27;;;2.70;99.90;;;;;;5110013;28;20200;-88
2022/02/12 09:16:14;;;;;;;24.77;14.90;;;2.60;99.90;;;;;;5109780;28;20205;-88
2022/02/12 09:18:41;;;;;;;24.70;13.07;;;3.00;99.90;;;;;;5110429;28;20268;-88
2022/02/12 09:21:08;;;;;;;24.13;14.95;;;3.00;99.90;;;;;;5116011;28;20697;-89
2022/02/12 09:23:35;;;;;;;22.63;13.38;;;3.10;99.90;;;;;;5113493;28;20224;-89
2022/02/12 09:26:02;;;;;;;18.80;11.88;;;3.20;99.90;;;;;;5112006;28;20201;-87
2022/02/12 09:28:29;;;;;;;24.70;13.18;;;3.60;99.90;;;;;;5109970;28;20200;-87
2022/02/12 09:30:58;;;;;;;20.80;13.63;;;3.40;99.90;;;;;;5114439;28;20217;-87
2022/02/12 09:33:25;;;;;;;18.58;12.20;;;2.90;99.90;;;;;;5110987;28;20212;-88
2022/02/12 09:35:56;;;;;;;20.85;12.23;;;2.90;99.90;;;;;;5111140;28;20208;-88
2022/02/12 09:38:23;;;;;;;24.27;14.00;;;3.50;99.90;;;;;;5109316;28;20220;-89
2022/02/12 09:40:50;;;;;;;23.35;14.27;;;3.40;99.90;;;;;;5109715;28;20212;-87
2022/02/12 09:43:19;;;;;;;27.67;15.40;;;3.50;99.90;;;;;;5107947;28;20227;-87
2022/02/12 09:45:55;;;;;;;21.92;12.40;;;3.90;99.90;;;;;;5113371;28;20189;-88
2022/02/12 09:48:32;;;;;;;19.75;9.85;;;3.80;99.90;;;;;;5118434;28;20200;-89
2022/02/12 09:51:01;;;;;;;17.25;11.60;;;3.90;99.90;;;;;;5115655;28;20234;-90
2022/02/12 09:53:30;;;;;;;22.75;12.18;;;3.70;99.90;;;;;;5109338;28;20212;-90
2022/02/12 09:55:58;;;;;;;19.88;11.00;;;4.10;99.90;;;;;;5106636;28;20216;-88
2022/02/12 09:58:26;;;;;;;17.40;11.30;;;4.10;99.90;;;;;;5107103;28;20220;-90
2022/02/12 10:01:03;;;;;;;23.88;10.63;;;4.20;99.90;;;;;;5108677;28;20234;-89
2022/02/12 10:03:38;;;;;;;19.25;9.82;;;4.40;99.90;;;;;;5112433;28;20808;-89
2022/02/12 10:06:05;;;;;;;15.75;9.07;;;4.50;99.90;;;;;;5109517;28;20201;-88
2022/02/12 10:08:36;;;;;;;16.70;9.50;;;4.60;99.90;;;;;;5109829;28;20197;-88
2022/02/12 10:11:12;;;;;;;19.48;9.48;;;4.70;99.90;;;;;;5110924;28;20365;-89
2022/02/12 10:13:40;;;;;;;15.43;8.52;;;4.80;99.90;;;;;;5109670;28;20207;-88
2022/02/12 10:16:07;;;;;;;19.33;9.23;;;4.90;99.90;;;;;;5108217;28;20205;-88
2022/02/12 10:18:39;;;;;;;13.45;8.70;;;4.80;99.90;;;;;;5107173;28;20229;-89
2022/02/12 10:21:07;;;;;;;13.15;7.95;;;5.10;99.90;;;;;;5108689;28;20239;-86
2022/02/12 10:23:36;;;;;;;15.70;6.00;;;5.20;99.90;;;;;;5107755;28;20231;-87
2022/02/12 10:26:10;;;;;;;14.35;6.70;;;4.80;99.90;;;;;;5109010;28;20273;-87
2022/02/12 10:28:40;;;;;;;11.57;6.82;;;5.40;99.90;;;;;;5113575;28;20284;-88
2022/02/12 10:31:07;;;;;;;13.20;6.18;;;5.00;99.90;;;;;;5111792;28;20237;-87
2022/02/12 10:33:43;;;;;;;13.43;6.38;;;5.00;99.90;;;;;;5113134;28;20307;-87
2022/02/12 10:36:14;;;;;;;14.48;8.23;;;5.20;99.90;;;;;;5111012;28;20192;-87
2022/02/12 10:38:45;;;;;;;14.23;7.18;;;5.00;99.90;;;;;;5108993;28;20209;-88
2022/02/12 10:41:14;;;;;;;13.20;5.35;;;5.30;99.90;;;;;;5110461;28;20224;-87
2022/02/12 10:43:43;;;;;;;14.10;7.18;;;5.60;99.90;;;;;;5110396;28;20289;-88
2022/02/12 10:46:13;;;;;;;10.68;5.43;;;5.30;99.90;;;;;;5118151;28;20177;-88
2022/02/12 10:48:42;;;;;;;9.73;5.20;;;5.20;99.90;;;;;;5115974;28;20207;-88
2022/02/12 10:51:14;;;;;;;7.75;3.90;;;5.70;99.90;;;;;;5116199;28;20220;-88
2022/02/12 10:54:02;;;;;;;10.65;5.43;;;5.50;99.90;;;;;;5116482;28;20194;-88
2022/02/12 10:56:46;;;;;;;10.82;6.65;;;5.70;99.90;;;;;;5113185;28;20200;-87
2022/02/12 10:59:14;;;;;;;14.13;5.50;;;5.20;99.90;;;;;;5114832;28;20248;-88
2022/02/12 11:01:42;;;;;;;16.40;6.43;;;5.80;99.90;;;;;;5120834;22;21021;-84
2022/02/12 11:04:10;;;;;;;8.45;4.95;;;6.00;99.90;;;;;;5083085;28;20226;-84
2022/02/12 11:06:38;;;;;;;15.43;7.20;;;6.00;99.90;;;;;;5079848;28;20201;-84
2022/02/12 11:09:05;;;;;;;13.75;6.28;;;6.10;99.90;;;;;;5080082;28;20198;-84
2022/02/12 11:11:32;;;;;;;15.80;7.07;;;6.10;99.90;;;;;;5082242;28;20248;-83
2022/02/12 11:13:59;;;;;;;10.75;5.85;;;6.30;99.90;;;;;;5099286;28;20206;-83
2022/02/12 11:16:27;;;;;;;13.32;6.05;;;6.40;99.90;;;;;;5099291;28;20281;-83
2022/02/12 11:18:55;;;;;;;14.93;6.82;;;6.40;99.90;;;;;;5099051;28;20197;-83
2022/02/12 11:21:26;;;;;;;12.65;5.82;;;6.20;99.90;;;;;;5099250;28;20209;-83
2022/02/12 11:24:00;;;;;;;15.77;6.88;;;6.60;99.90;;;;;;5098898;28;20209;-83
2022/02/12 11:26:27;;;;;;;9.32;4.40;;;6.30;99.90;;;;;;5098562;28;20197;-83
2022/02/12 11:28:54;;;;;;;14.27;5.45;;;6.30;99.90;;;;;;5097416;28;20206;-83
2022/02/12 11:31:23;;;;;;;17.10;6.47;;;6.30;99.90;;;;;;5098524;28;20212;-84
2022/02/12 11:34:12;;;;;;;15.13;6.28;;;6.40;99.90;;;;;;5098947;28;20693;-83
2022/02/12 11:36:41;;;;;;;9.25;6.15;;;6.60;99.90;;;;;;5098876;28;20195;-84
2022/02/12 11:39:11;;;;;;;11.82;5.55;;;6.50;99.90;;;;;;5098577;28;20292;-84
2022/02/12 11:41:39;;;;;;;10.10;5.45;;;6.60;99.90;;;;;;5099923;28;20590;-84
2022/02/12 11:44:06;;;;;;;10.57;4.60;;;6.80;99.90;;;;;;5099388;28;20635;-84
2022/02/12 11:47:02;;;;;;;10.95;4.93;;;6.80;99.90;;;;;;5100832;28;20268;-84
2022/02/12 11:49:30;;;;;;;10.88;4.80;;;6.60;99.90;;;;;;5102219;28;20222;-84
2022/02/12 11:52:01;;;;;;;8.80;5.22;;;6.90;99.90;;;;;;5099716;28;20251;-84
2022/02/12 11:54:56;;;;;;;10.75;6.05;;;6.60;99.90;;;;;;5107365;28;20182;-84
2022/02/12 11:57:42;;;;;;;7.72;4.63;;;6.80;99.90;;;;;;5102239;28;20187;-84
2022/02/12 12:00:35;;;;;;;8.07;4.20;;;6.90;99.90;;;;;;5100918;28;20202;-84
2022/02/12 12:03:06;;;;;;;17.83;6.15;;;7.10;99.70;;;;;;5099898;28;20243;-83
2022/02/12 12:05:33;;;;;;;10.23;5.00;;;6.70;99.50;;;;;;5100109;28;20237;-83
2022/02/12 12:08:12;;;;;;;7.30;4.90;;;7.00;99.50;;;;;;5100346;28;20211;-83
2022/02/12 12:11:03;;;;;;;7.78;5.30;;;7.10;99.30;;;;;;5099895;28;20203;-83
2022/02/12 12:13:44;;;;;;;12.43;5.13;;;7.20;99.10;;;;;;5099057;28;20244;-83
2022/02/12 12:19:03;;;;;;;11.65;6.07;;;6.80;99.30;;;;;;5097265;28;20194;-84
2022/02/12 12:21:31;;;;;;;9.38;4.40;;;7.10;99.20;;;;;;5099463;28;20270;-82
2022/02/12 12:24:01;;;;;;;10.50;4.40;;;7.30;98.50;;;;;;5102889;28;20233;-81
2022/02/12 12:26:45;;;;;;;7.43;4.05;;;7.50;97.90;;;;;;5103496;28;20326;-83
2022/02/12 12:32:06;;;;;;;9.10;4.10;;;7.60;97.30;;;;;;5100208;28;20227;-84
2022/02/12 12:34:34;;;;;;;7.13;3.90;;;7.50;97.10;;;;;;5100025;28;20231;-83
2022/02/12 12:37:03;;;;;;;6.85;3.90;;;7.80;96.60;;;;;;5102335;28;20654;-84
2022/02/12 12:39:38;;;;;;;7.72;4.28;;;8.00;95.40;;;;;;5098257;28;20211;-84
2022/02/12 12:42:13;;;;;;;8.60;3.25;;;7.90;95.20;;;;;;5098884;28;20360;-83
2022/02/12 12:44:42;;;;;;;6.35;3.00;;;8.00;95.00;;;;;;5101562;28;20222;-84
2022/02/12 12:47:09;;;;;;;6.80;3.55;;;7.90;94.30;;;;;;5103861;28;20217;-83
2022/02/12 12:49:39;;;;;;;9.27;3.20;;;7.90;93.80;;;;;;5110389;28;20270;-83
2022/02/12 12:52:07;;;;;;;6.07;3.40;;;8.10;93.90;;;;;;5108426;28;20293;-83
2022/02/12 12:54:38;;;;;;;7.13;3.22;;;8.20;93.30;;;;;;5102070;28;20243;-83
2022/02/12 12:57:05;;;;;;;4.95;2.45;;;8.30;92.70;;;;;;5103204;28;20295;-84
2022/02/12 12:59:33;;;;;;;5.30;2.30;;;8.40;91.40;;;;;;5099668;28;20247;-85
2022/02/12 13:02:02;;;;;;;8.52;3.10;;;8.10;91.40;;;;;;5098767;28;20293;-85
2022/02/12 13:04:35;;;;;;;8.85;2.75;;;8.00;91.60;;;;;;5101968;28;20235;-86
2022/02/12 13:07:06;;;;;;;5.07;2.83;;;8.00;91.60;;;;;;5098909;28;20222;-85
2022/02/12 13:09:35;;;;;;;6.55;2.90;;;8.10;91.70;;;;;;5099349;28;20207;-86
2022/02/12 13:12:40;;;;;;;7.65;2.90;;;8.00;91.30;;;;;;5099463;28;20216;-85